Time;durP1;ratioP1;P1;durP2;ratioP2;P2;SDS_P1;SDS_P2;PMS_P1;PMS_P2;Temp;Humidity;BMP_temperature;BMP_pressure;BME280_temperature;BME280_humidity;BME280_pressure;Samples;Min_cycle;Max_cycle;Signal;HPM_P1;HPM_P2
2024/03/28 00:01:49;;;;;;;8.50;4.57;;;24.40;44.50;;;;;;6160039;28;80604;-56
2024/03/28 00:04:50;;;;;;;5.68;3.55;;;24.40;44.40;;;;;;6156630;28;81251;-54
2024/03/28 00:07:50;;;;;;;6.45;3.90;;;24.30;44.30;;;;;;6161516;28;83117;-56
2024/03/28 00:10:51;;;;;;;7.88;3.75;;;24.40;44.40;;;;;;6153577;28;80384;-54
2024/03/28 00:13:51;;;;;;;8.88;3.90;;;24.40;44.50;;;;;;6153355;28;80702;-52
2024/03/28 00:16:52;;;;;;;5.80;3.58;;;24.40;44.40;;;;;;6152733;28;80696;-51
2024/03/28 00:19:52;;;;;;;6.60;4.03;;;24.40;44.40;;;;;;6161683;28;80866;-50
2024/03/28 00:22:53;;;;;;;6.07;4.00;;;24.40;44.50;;;;;;6157926;28;80349;-53
2024/03/28 00:25:53;;;;;;;7.38;4.03;;;24.40;44.30;;;;;;6165661;28;81920;-53
2024/03/28 00:28:54;;;;;;;5.72;4.10;;;24.40;44.40;;;;;;6152313;28;81336;-53
2024/03/28 00:31:54;;;;;;;7.15;4.57;;;24.40;44.40;;;;;;6160696;28;83629;-51
2024/03/28 00:34:55;;;;;;;7.60;3.92;;;24.40;44.40;;;;;;6154805;28;82829;-52
2024/03/28 00:37:55;;;;;;;6.57;4.20;;;24.40;44.40;;;;;;6152982;28;80366;-53
2024/03/28 00:40:56;;;;;;;5.90;3.70;;;24.30;44.40;;;;;;6156979;28;80726;-53
2024/03/28 00:43:56;;;;;;;5.68;3.45;;;24.30;44.50;;;;;;6159949;28;80536;-47
2024/03/28 00:46:57;;;;;;;5.32;3.63;;;24.30;44.50;;;;;;6153061;28;82554;-46
2024/03/28 00:49:57;;;;;;;7.28;3.65;;;24.40;44.50;;;;;;6151277;28;82398;-47
2024/03/28 00:52:58;;;;;;;4.53;3.47;;;24.30;44.50;;;;;;6152004;28;80653;-49
2024/03/28 00:55:58;;;;;;;5.53;3.45;;;24.30;44.50;;;;;;6152365;28;80990;-50
2024/03/28 00:58:59;;;;;;;7.15;3.78;;;24.40;44.60;;;;;;6152712;28;81945;-47
2024/03/28 01:01:59;;;;;;;5.63;3.13;;;24.30;44.60;;;;;;6152636;28;80749;-48
2024/03/28 01:05:00;;;;;;;5.28;3.10;;;24.30;44.60;;;;;;6158058;28;80482;-58
2024/03/28 01:08:00;;;;;;;5.63;3.38;;;24.40;44.70;;;;;;6159658;28;81237;-58
2024/03/28 01:11:00;;;;;;;6.32;3.33;;;24.30;44.60;;;;;;6151621;28;80399;-58
2024/03/28 01:14:01;;;;;;;5.68;3.30;;;24.40;45.00;;;;;;6152352;28;80762;-58
2024/03/28 01:17:02;;;;;;;7.13;3.80;;;24.40;44.80;;;;;;6165881;28;80306;-59
2024/03/28 01:20:02;;;;;;;5.60;3.35;;;24.40;44.90;;;;;;6152523;28;84573;-60
2024/03/28 01:23:03;;;;;;;6.20;3.35;;;24.40;45.00;;;;;;6151435;28;80791;-67
2024/03/28 01:26:03;;;;;;;7.18;2.80;;;24.30;44.50;;;;;;6151069;28;82231;-66
2024/03/28 01:29:04;;;;;;;5.88;3.67;;;24.30;44.50;;;;;;6150173;28;80736;-68
2024/03/28 01:32:04;;;;;;;4.72;2.92;;;24.30;44.70;;;;;;6162177;28;80358;-67
2024/03/28 01:35:05;;;;;;;5.88;2.92;;;24.30;44.80;;;;;;6165777;28;80740;-66
2024/03/28 01:38:06;;;;;;;5.38;3.05;;;24.30;44.70;;;;;;6151274;28;81286;-67
2024/03/28 01:41:06;;;;;;;5.13;3.25;;;24.30;44.50;;;;;;6152219;28;80625;-59
2024/03/28 01:44:07;;;;;;;4.93;3.03;;;24.30;44.50;;;;;;6151900;28;80974;-59
2024/03/28 01:47:07;;;;;;;4.82;2.80;;;24.30;44.70;;;;;;6155393;28;81716;-59
2024/03/28 01:50:08;;;;;;;4.15;2.60;;;24.30;44.80;;;;;;6162080;28;81918;-59
2024/03/28 01:53:08;;;;;;;6.18;3.15;;;24.30;44.80;;;;;;6161097;28;80399;-58
2024/03/28 01:56:09;;;;;;;5.00;3.30;;;24.30;44.80;;;;;;6151043;28;80785;-58
2024/03/28 01:59:09;;;;;;;5.38;2.90;;;24.30;45.60;;;;;;6164735;28;81916;-54
2024/03/28 02:02:10;;;;;;;7.50;3.65;;;24.30;45.20;;;;;;6167329;28;82560;-55
2024/03/28 02:05:10;;;;;;;5.60;3.30;;;24.30;44.70;;;;;;6167574;28;80630;-54
2024/03/28 02:08:11;;;;;;;7.47;3.55;;;24.30;44.80;;;;;;6152242;28;81152;-50
2024/03/28 02:11:11;;;;;;;10.65;3.00;;;24.30;44.60;;;;;;6151465;28;80649;-50
2024/03/28 02:14:12;;;;;;;6.93;3.17;;;24.30;44.60;;;;;;6153255;28;80568;-50
2024/03/28 02:17:12;;;;;;;6.28;2.88;;;24.30;44.60;;;;;;6151602;28;83371;-49
2024/03/28 02:20:13;;;;;;;6.07;3.03;;;24.30;44.60;;;;;;6151659;28;81355;-48
2024/03/28 02:23:13;;;;;;;6.80;2.92;;;24.30;44.60;;;;;;6149517;28;82725;-52
2024/03/28 02:26:14;;;;;;;5.18;3.03;;;24.30;44.70;;;;;;6153566;28;81453;-52
2024/03/28 02:29:14;;;;;;;4.53;3.05;;;24.30;44.70;;;;;;6168468;28;82768;-50
2024/03/28 02:32:15;;;;;;;6.15;3.00;;;24.30;44.60;;;;;;6161209;28;80815;-50
2024/03/28 02:35:15;;;;;;;6.65;3.03;;;24.30;44.70;;;;;;6152901;28;81504;-51
2024/03/28 02:38:16;;;;;;;5.68;2.88;;;24.30;44.70;;;;;;6155801;28;81060;-49
2024/03/28 02:41:16;;;;;;;8.70;3.53;;;24.30;44.60;;;;;;6155279;28;80418;-53
2024/03/28 02:44:17;;;;;;;6.55;3.17;;;24.30;44.70;;;;;;6154714;28;80894;-49
2024/03/28 02:47:17;;;;;;;8.07;3.75;;;24.30;44.70;;;;;;6153746;28;87157;-49
2024/03/28 02:50:18;;;;;;;7.18;3.20;;;24.30;44.70;;;;;;6162974;28;81093;-49
2024/03/28 02:53:18;;;;;;;8.38;3.35;;;24.30;44.70;;;;;;6154189;28;80664;-51
2024/03/28 02:56:19;;;;;;;6.75;2.83;;;24.30;44.70;;;;;;6155492;28;81025;-54
2024/03/28 02:59:19;;;;;;;7.43;3.15;;;24.30;44.80;;;;;;6144638;28;80771;-54
2024/03/28 03:02:20;;;;;;;6.13;3.28;;;24.30;44.80;;;;;;6142310;28;80363;-55
2024/03/28 03:05:20;;;;;;;5.88;3.05;;;24.30;44.70;;;;;;6154187;28;80447;-54
2024/03/28 03:08:21;;;;;;;5.88;2.55;;;24.30;44.80;;;;;;6153913;28;80586;-56
2024/03/28 03:11:21;;;;;;;5.57;2.60;;;24.30;44.80;;;;;;6154486;28;80066;-55
2024/03/28 03:14:22;;;;;;;6.72;3.13;;;24.30;44.80;;;;;;6154179;28;80424;-55
2024/03/28 03:17:22;;;;;;;8.45;2.95;;;24.30;44.90;;;;;;6152491;28;84373;-54
2024/03/28 03:20:24;;;;;;;10.63;3.47;;;24.30;44.80;;;;;;6153612;28;81000;-54
2024/03/28 03:23:25;;;;;;;10.05;3.30;;;24.30;44.90;;;;;;6155360;28;80619;-51
2024/03/28 03:26:30;;;;;;;15.00;5.05;;;24.30;44.90;;;;;;6171075;28;80531;-54
2024/03/28 03:36:10;;;;;;;8.27;3.00;;;24.30;44.90;;;;;;6142890;28;81326;-53
2024/03/28 03:39:11;;;;;;;12.90;4.00;;;24.30;45.10;;;;;;6153940;28;80942;-51
2024/03/28 03:42:14;;;;;;;9.70;3.20;;;24.30;45.00;;;;;;6153939;28;80340;-54
2024/03/28 03:45:14;;;;;;;9.43;3.83;;;24.30;45.10;;;;;;6158896;28;83913;-49
2024/03/28 03:48:15;;;;;;;7.93;3.35;;;24.30;45.10;;;;;;6153129;28;80562;-51
2024/03/28 03:51:17;;;;;;;13.57;3.92;;;24.30;45.00;;;;;;6163414;28;81220;-51
2024/03/28 03:54:17;;;;;;;9.57;3.72;;;24.30;45.00;;;;;;6156358;28;82469;-51
2024/03/28 03:57:18;;;;;;;9.90;4.05;;;24.30;45.10;;;;;;6158261;28;80836;-51
2024/03/28 04:00:18;;;;;;;10.80;3.20;;;24.30;45.10;;;;;;6161020;28;81309;-51
2024/03/28 04:03:19;;;;;;;11.00;3.97;;;24.30;45.00;;;;;;6164044;28;81453;-54
2024/03/28 04:06:19;;;;;;;8.95;3.90;;;24.30;45.10;;;;;;6165058;28;80769;-51
2024/03/28 04:09:20;;;;;;;13.73;4.38;;;24.30;45.40;;;;;;6153269;28;80328;-51
2024/03/28 04:12:21;;;;;;;12.05;4.82;;;24.30;45.00;;;;;;6155791;28;82931;-48
2024/03/28 04:15:21;;;;;;;11.13;3.97;;;24.30;45.10;;;;;;6153434;28;80550;-47
2024/03/28 04:18:21;;;;;;;11.73;4.10;;;24.30;45.10;;;;;;6154705;28;80460;-46
2024/03/28 04:21:23;;;;;;;9.55;3.80;;;24.30;45.40;;;;;;6163354;28;81308;-46
2024/03/28 04:24:23;;;;;;;12.00;3.80;;;24.30;45.40;;;;;;6161119;28;80409;-59
2024/03/28 04:27:24;;;;;;;12.77;4.35;;;24.30;45.50;;;;;;6165352;28;80908;-67
2024/03/28 04:30:24;;;;;;;14.10;4.72;;;24.40;45.40;;;;;;6142442;28;80561;-66
2024/03/28 04:33:25;;;;;;;10.52;3.50;;;24.40;45.40;;;;;;6159404;28;80647;-71
2024/03/28 04:36:25;;;;;;;15.75;4.82;;;24.40;45.30;;;;;;6153134;28;80436;-69
2024/03/28 04:39:26;;;;;;;15.02;4.70;;;24.40;45.20;;;;;;6152855;28;80402;-70
2024/03/28 04:42:26;;;;;;;13.63;4.60;;;24.40;45.20;;;;;;6156664;28;80324;-65
2024/03/28 04:45:27;;;;;;;17.95;4.82;;;24.30;45.20;;;;;;6152695;28;82892;-60
2024/03/28 04:48:27;;;;;;;14.68;4.68;;;24.40;45.10;;;;;;6154066;28;82737;-58
2024/03/28 04:51:28;;;;;;;14.93;5.10;;;24.30;45.10;;;;;;6154252;28;82901;-51
2024/03/28 04:54:28;;;;;;;20.52;5.45;;;24.40;45.40;;;;;;6152182;28;80436;-58
2024/03/28 04:57:29;;;;;;;16.30;4.15;;;24.40;45.30;;;;;;6151622;28;80807;-59
2024/03/28 05:00:30;;;;;;;17.83;4.10;;;24.40;45.20;;;;;;6151122;28;80458;-48
2024/03/28 05:03:31;;;;;;;18.63;4.60;;;24.40;45.20;;;;;;6162337;28;81024;-44
2024/03/28 05:06:31;;;;;;;13.52;5.40;;;24.40;45.30;;;;;;6155775;28;80586;-47
2024/03/28 05:09:33;;;;;;;16.70;4.72;;;24.50;45.20;;;;;;6152404;28;80516;-49
2024/03/28 05:12:33;;;;;;;17.20;3.95;;;24.40;45.40;;;;;;6154689;28;82531;-50
2024/03/28 05:15:33;;;;;;;12.18;4.50;;;24.40;45.70;;;;;;6155580;28;80523;-49
2024/03/28 05:18:34;;;;;;;16.88;5.22;;;24.40;45.80;;;;;;6152073;28;81180;-46
2024/03/28 05:21:35;;;;;;;24.95;5.78;;;24.50;45.50;;;;;;6151708;28;80496;-60
2024/03/28 05:24:35;;;;;;;22.02;5.47;;;24.40;45.70;;;;;;6151199;28;80571;-54
2024/03/28 05:27:35;;;;;;;17.73;4.90;;;24.50;45.90;;;;;;6164396;28;80924;-53
2024/03/28 05:30:37;;;;;;;22.52;5.32;;;24.50;45.60;;;;;;6152482;28;80461;-55
2024/03/28 05:33:37;;;;;;;26.42;6.40;;;24.50;45.80;;;;;;6162449;28;83151;-58
2024/03/28 05:36:38;;;;;;;22.00;6.03;;;24.50;45.60;;;;;;6154991;28;81463;-54
2024/03/28 05:39:39;;;;;;;30.48;7.22;;;24.40;45.40;;;;;;6142113;28;82509;-56
2024/03/28 05:42:39;;;;;;;23.70;5.53;;;24.40;45.40;;;;;;6164290;28;80397;-58
2024/03/28 05:45:40;;;;;;;15.65;5.35;;;24.40;45.40;;;;;;6156764;28;80607;-58
2024/03/28 05:48:40;;;;;;;21.30;5.32;;;24.40;45.40;;;;;;6149044;28;81046;-57
2024/03/28 05:51:41;;;;;;;24.13;6.35;;;24.40;45.40;;;;;;6148139;28;81303;-57
2024/03/28 05:54:41;;;;;;;15.48;5.28;;;24.40;45.40;;;;;;6138233;28;83468;-55
2024/03/28 05:57:42;;;;;;;24.38;5.63;;;24.40;45.50;;;;;;6158512;28;83822;-46
2024/03/28 06:00:42;;;;;;;19.65;5.53;;;24.40;45.50;;;;;;6153706;28;80471;-49
2024/03/28 06:03:43;;;;;;;23.52;5.80;;;24.40;45.50;;;;;;6167855;28;81842;-46
2024/03/28 06:06:44;;;;;;;14.35;4.70;;;24.40;45.40;;;;;;6157302;28;81394;-46
2024/03/28 06:09:44;;;;;;;18.15;4.85;;;24.40;45.30;;;;;;6147788;28;80485;-48
2024/03/28 06:12:45;;;;;;;16.38;5.43;;;24.40;45.20;;;;;;6151319;28;81153;-47
2024/03/28 06:15:45;;;;;;;21.75;5.70;;;24.40;45.20;;;;;;6153678;28;80464;-46
2024/03/28 06:18:46;;;;;;;20.58;4.90;;;24.40;45.30;;;;;;6156446;28;80412;-48
2024/03/28 06:21:46;;;;;;;18.88;5.22;;;24.40;45.40;;;;;;6152859;28;80714;-50
2024/03/28 06:24:47;;;;;;;17.92;5.47;;;24.40;45.30;;;;;;6148636;28;80757;-47
2024/03/28 06:27:47;;;;;;;19.75;6.15;;;24.40;45.40;;;;;;6152193;28;82629;-48
2024/03/28 06:30:56;;;;;;;18.52;5.30;;;24.40;45.40;;;;;;6159356;28;80657;-50
2024/03/28 06:33:56;;;;;;;17.98;4.90;;;24.40;45.50;;;;;;6139373;28;85094;-58
2024/03/28 06:36:57;;;;;;;13.95;5.40;;;24.40;45.50;;;;;;6153820;28;82913;-57
2024/03/28 06:39:57;;;;;;;20.60;5.00;;;24.40;45.50;;;;;;6151241;28;81885;-58
2024/03/28 06:42:58;;;;;;;15.50;5.60;;;24.50;45.60;;;;;;6155328;28;80930;-56
2024/03/28 06:45:58;;;;;;;13.13;4.82;;;24.40;45.60;;;;;;6150127;28;80336;-58
2024/03/28 06:48:59;;;;;;;14.02;4.50;;;24.50;45.70;;;;;;6151809;28;80456;-59
2024/03/28 06:51:59;;;;;;;13.25;4.18;;;24.50;45.70;;;;;;6151956;28;80259;-58
2024/03/28 06:55:00;;;;;;;21.50;5.70;;;24.50;45.90;;;;;;6148503;28;80990;-58
2024/03/28 06:58:01;;;;;;;21.42;5.18;;;24.50;45.70;;;;;;6152307;28;80505;-57
2024/03/28 07:01:01;;;;;;;16.63;4.72;;;24.50;45.90;;;;;;6151610;28;80721;-58
2024/03/28 07:04:02;;;;;;;17.40;4.43;;;24.50;45.70;;;;;;6150593;28;80739;-58
2024/03/28 07:07:02;;;;;;;13.82;4.63;;;24.60;45.80;;;;;;6163452;28;83734;-57
2024/03/28 07:10:03;;;;;;;10.02;4.57;;;24.50;45.80;;;;;;6148512;28;80379;-58
2024/03/28 07:13:03;;;;;;;15.25;4.15;;;24.50;45.80;;;;;;6152660;28;81416;-49
2024/03/28 07:16:04;;;;;;;11.75;3.53;;;24.50;45.80;;;;;;6150114;28;80572;-48
2024/03/28 07:19:05;;;;;;;13.77;4.47;;;24.50;45.80;;;;;;6151337;28;80488;-53
2024/03/28 07:22:05;;;;;;;16.35;4.68;;;24.50;45.80;;;;;;6150060;28;81190;-47
2024/03/28 07:25:06;;;;;;;14.60;4.72;;;24.50;45.80;;;;;;6153603;28;80844;-51
2024/03/28 07:28:07;;;;;;;15.88;4.50;;;24.60;46.00;;;;;;6155022;28;80506;-48
2024/03/28 07:31:07;;;;;;;10.27;4.03;;;24.50;45.80;;;;;;6163223;28;85897;-48
2024/03/28 07:34:08;;;;;;;12.18;4.38;;;24.50;45.80;;;;;;6161948;28;81331;-49
2024/03/28 07:37:08;;;;;;;13.00;4.40;;;24.60;45.70;;;;;;6151668;28;80340;-46
2024/03/28 07:40:09;;;;;;;13.90;4.28;;;24.60;45.70;;;;;;6168825;28;81890;-52
2024/03/28 07:43:10;;;;;;;14.40;4.00;;;24.60;45.80;;;;;;6167873;28;81662;-49
2024/03/28 07:46:10;;;;;;;14.60;4.38;;;24.50;45.80;;;;;;6158025;28;81247;-52
2024/03/28 07:49:11;;;;;;;14.65;3.85;;;24.60;45.90;;;;;;6163183;28;80899;-52
2024/03/28 07:52:11;;;;;;;12.68;4.22;;;24.60;45.90;;;;;;6160761;28;81023;-53
2024/03/28 07:55:12;;;;;;;15.82;4.25;;;24.60;45.90;;;;;;6154529;28;80814;-48
2024/03/28 07:58:12;;;;;;;18.33;4.70;;;24.60;45.80;;;;;;6153660;28;82371;-52
2024/03/28 08:01:13;;;;;;;14.80;4.47;;;24.60;45.80;;;;;;6155835;28;80911;-52
2024/03/28 08:04:14;;;;;;;10.80;3.83;;;24.60;45.80;;;;;;6153867;28;81266;-51
2024/03/28 08:07:14;;;;;;;18.90;4.50;;;24.60;45.80;;;;;;6151649;28;80621;-65
2024/03/28 08:10:15;;;;;;;17.08;4.22;;;24.60;45.80;;;;;;6163437;28;80791;-60
2024/03/28 08:13:15;;;;;;;16.50;4.00;;;24.60;45.70;;;;;;6165448;28;80855;-65
2024/03/28 08:16:16;;;;;;;11.57;4.57;;;24.60;45.80;;;;;;6164883;28;81013;-66
2024/03/28 08:19:17;;;;;;;11.25;4.10;;;24.60;45.80;;;;;;6163005;28;80657;-66
2024/03/28 08:22:19;;;;;;;10.65;3.97;;;24.60;45.80;;;;;;6152745;28;80910;-67
2024/03/28 08:25:22;;;;;;;17.58;4.55;;;24.60;45.80;;;;;;6155801;28;80363;-55
2024/03/28 08:28:22;;;;;;;13.63;4.60;;;24.50;45.80;;;;;;6162884;28;80904;-58
2024/03/28 08:31:23;;;;;;;17.05;4.22;;;24.60;45.80;;;;;;6156692;28;80890;-60
2024/03/28 08:34:25;;;;;;;10.70;4.15;;;24.50;46.00;;;;;;6151486;28;83669;-58
2024/03/28 08:37:26;;;;;;;9.60;3.95;;;24.60;46.00;;;;;;6154596;28;83962;-59
2024/03/28 08:40:26;;;;;;;10.27;3.70;;;24.60;45.90;;;;;;6157840;28;80436;-59
2024/03/28 08:43:27;;;;;;;10.48;3.72;;;24.60;45.90;;;;;;6153979;28;80377;-51
2024/03/28 08:46:27;;;;;;;10.98;3.80;;;24.60;45.90;;;;;;6160907;28;81251;-49
2024/03/28 08:49:28;;;;;;;9.93;3.80;;;24.60;45.80;;;;;;6150009;28;81404;-48
2024/03/28 08:52:28;;;;;;;10.20;3.75;;;24.60;45.80;;;;;;6161298;28;80152;-48
2024/03/28 08:55:29;;;;;;;11.25;2.78;;;24.60;45.80;;;;;;6158653;28;81061;-48
2024/03/28 08:58:29;;;;;;;13.98;4.00;;;24.60;45.70;;;;;;6163941;28;80721;-48
2024/03/28 09:01:30;;;;;;;9.90;3.58;;;24.60;45.70;;;;;;6157627;28;80323;-49
2024/03/28 09:04:30;;;;;;;12.18;3.17;;;24.60;45.60;;;;;;6159650;28;81463;-54
2024/03/28 09:07:31;;;;;;;8.85;3.10;;;24.60;45.60;;;;;;6169915;28;81008;-48
2024/03/28 09:10:31;;;;;;;8.13;3.47;;;24.70;45.60;;;;;;6159741;28;80374;-50
2024/03/28 09:13:32;;;;;;;15.68;3.45;;;24.70;45.60;;;;;;6151778;28;80764;-51
2024/03/28 09:16:32;;;;;;;9.40;3.20;;;24.70;45.60;;;;;;6153973;28;80574;-52
2024/03/28 09:19:33;;;;;;;13.55;3.50;;;24.70;45.60;;;;;;6163648;28;80521;-58
2024/03/28 09:22:34;;;;;;;10.07;3.35;;;24.70;45.60;;;;;;6164394;28;81842;-56
2024/03/28 09:25:34;;;;;;;12.43;3.42;;;24.70;45.70;;;;;;6153093;28;80449;-51
2024/03/28 09:28:35;;;;;;;8.43;3.33;;;24.60;45.50;;;;;;6154225;28;81588;-54
2024/03/28 09:31:35;;;;;;;9.52;3.65;;;24.70;45.70;;;;;;6165583;28;82557;-58
2024/03/28 09:34:39;;;;;;;9.57;2.88;;;24.70;45.80;;;;;;6162167;28;83026;-56
2024/03/28 09:37:39;;;;;;;10.65;2.80;;;24.60;45.60;;;;;;6165031;28;80488;-57
2024/03/28 09:40:40;;;;;;;9.35;2.58;;;24.60;45.50;;;;;;6162183;28;80669;-58
2024/03/28 09:43:40;;;;;;;5.97;2.17;;;24.60;45.50;;;;;;6161521;28;82740;-58
2024/03/28 09:46:41;;;;;;;7.85;3.13;;;24.60;45.40;;;;;;6149137;28;81896;-57
2024/03/28 09:49:41;;;;;;;6.22;2.60;;;24.60;45.50;;;;;;6154109;28;80761;-58
2024/03/28 09:52:42;;;;;;;9.80;2.40;;;24.60;45.50;;;;;;6153587;28;80589;-58
2024/03/28 09:55:43;;;;;;;5.60;1.77;;;24.70;45.40;;;;;;6152980;28;81453;-55
2024/03/28 09:58:44;;;;;;;5.00;2.22;;;24.70;45.50;;;;;;6164585;28;81856;-58
2024/03/28 10:01:44;;;;;;;3.30;2.08;;;24.70;45.40;;;;;;6150417;28;81950;-59
2024/03/28 10:04:45;;;;;;;4.72;2.40;;;24.70;45.30;;;;;;6161925;28;80701;-55
2024/03/28 10:07:45;;;;;;;6.88;1.92;;;24.70;45.10;;;;;;6151711;28;83438;-55
2024/03/28 10:10:46;;;;;;;6.22;2.28;;;24.70;44.60;;;;;;6152445;28;81592;-56
2024/03/28 10:13:46;;;;;;;5.15;1.92;;;24.80;44.80;;;;;;6152740;28;80526;-58
2024/03/28 10:16:48;;;;;;;4.70;1.70;;;24.70;44.70;;;;;;6149223;28;80406;-58
2024/03/28 10:19:49;;;;;;;3.85;2.22;;;24.80;44.60;;;;;;6149302;28;81290;-58
2024/03/28 10:22:52;;;;;;;5.40;1.90;;;24.80;44.50;;;;;;6151731;28;80960;-59
2024/03/28 10:25:53;;;;;;;3.80;1.92;;;24.80;44.50;;;;;;6143914;28;80555;-57
2024/03/28 10:28:53;;;;;;;6.57;1.70;;;24.80;44.50;;;;;;6153994;28;81486;-58
2024/03/28 10:31:54;;;;;;;3.78;1.77;;;24.80;44.50;;;;;;6159582;28;80379;-52
2024/03/28 10:34:55;;;;;;;7.07;2.00;;;24.80;44.60;;;;;;6153104;28;80268;-49
2024/03/28 10:37:56;;;;;;;5.32;1.92;;;24.80;44.70;;;;;;6152472;28;81909;-52
2024/03/28 10:40:58;;;;;;;4.28;1.48;;;24.90;44.00;;;;;;6152707;28;80458;-56
2024/03/28 10:43:59;;;;;;;3.45;1.90;;;24.90;44.10;;;;;;6156087;28;80459;-53
2024/03/28 10:46:59;;;;;;;5.45;1.33;;;24.90;43.40;;;;;;6153254;28;81002;-50
2024/03/28 10:50:00;;;;;;;1.55;1.20;;;24.90;42.40;;;;;;6151900;28;80708;-52
2024/03/28 10:53:00;;;;;;;19.65;1.65;;;24.80;41.10;;;;;;6152817;28;80434;-55
2024/03/28 10:56:01;;;;;;;3.78;1.10;;;24.80;41.00;;;;;;6153921;28;80471;-54
2024/03/28 10:59:01;;;;;;;4.30;1.05;;;24.80;40.10;;;;;;6158361;28;81110;-55
2024/03/28 11:02:02;;;;;;;2.45;1.00;;;24.80;39.80;;;;;;6153372;28;80885;-60
2024/03/28 11:05:02;;;;;;;6.13;1.10;;;24.70;39.70;;;;;;6162562;28;86513;-56
2024/03/28 11:08:03;;;;;;;2.42;1.20;;;24.70;39.20;;;;;;6163283;28;81532;-51
2024/03/28 11:11:04;;;;;;;3.83;1.00;;;24.80;38.90;;;;;;6156157;28;80524;-55
2024/03/28 11:14:04;;;;;;;0.70;0.70;;;24.80;38.70;;;;;;6154787;28;85407;-55
2024/03/28 11:17:05;;;;;;;4.88;1.30;;;24.80;38.60;;;;;;6156938;28;80744;-55
2024/03/28 11:20:09;;;;;;;2.85;1.25;;;24.80;38.30;;;;;;6154707;28;81024;-55
2024/03/28 11:23:09;;;;;;;0.63;0.60;;;24.80;38.00;;;;;;6170807;28;80705;-56
2024/03/28 11:26:10;;;;;;;1.35;0.88;;;24.70;38.00;;;;;;6164903;28;80720;-52
2024/03/28 11:29:11;;;;;;;2.10;0.75;;;24.70;38.30;;;;;;6166173;28;81815;-58
2024/03/28 11:32:11;;;;;;;3.05;0.80;;;24.70;38.50;;;;;;6173641;28;80342;-58
2024/03/28 11:35:12;;;;;;;2.53;0.80;;;24.70;38.00;;;;;;6165653;28;80470;-59
2024/03/28 11:38:12;;;;;;;1.08;0.65;;;24.70;38.30;;;;;;6165220;28;87660;-59
2024/03/28 11:41:13;;;;;;;0.75;0.70;;;24.80;38.20;;;;;;6174221;28;81127;-57
2024/03/28 11:44:13;;;;;;;4.63;0.98;;;24.80;38.60;;;;;;6171485;28;81933;-59
2024/03/28 11:47:14;;;;;;;5.75;1.27;;;24.80;38.80;;;;;;6170436;28;80584;-57
2024/03/28 11:50:14;;;;;;;1.50;0.70;;;24.90;39.00;;;;;;6159145;28;81910;-57
2024/03/28 11:53:15;;;;;;;1.33;0.75;;;24.80;39.00;;;;;;6164778;28;81325;-58
2024/03/28 11:56:21;;;;;;;1.40;0.77;;;24.80;39.70;;;;;;6157168;28;80780;-58
2024/03/28 11:59:21;;;;;;;;;;;24.80;39.10;;;;;;6156587;28;81053;-59
2024/03/28 12:02:22;;;;;;;0.80;0.50;;;24.80;38.50;;;;;;6165314;28;79144;-59
2024/03/28 12:05:22;;;;;;;1.92;0.50;;;24.70;38.20;;;;;;6166199;28;80234;-60
2024/03/28 12:08:23;;;;;;;1.48;0.70;;;24.60;38.30;;;;;;6158963;28;80979;-63
2024/03/28 12:11:24;;;;;;;0.98;0.75;;;24.60;39.00;;;;;;6160505;28;80920;-62
2024/03/28 12:14:24;;;;;;;1.27;0.75;;;24.50;39.00;;;;;;6152808;28;81119;-61
2024/03/28 12:17:28;;;;;;;0.55;0.55;;;24.50;39.30;;;;;;6156405;28;81944;-61
2024/03/28 12:20:28;;;;;;;0.63;0.63;;;24.40;39.90;;;;;;6157313;28;80994;-61
2024/03/28 12:23:28;;;;;;;1.17;0.65;;;24.30;40.10;;;;;;6167016;28;80144;-62
2024/03/28 12:26:30;;;;;;;1.55;0.60;;;24.30;40.20;;;;;;6168697;28;81063;-63
2024/03/28 12:29:31;;;;;;;3.55;0.63;;;24.20;40.20;;;;;;6162921;28;80575;-64
2024/03/28 12:32:31;;;;;;;0.43;0.40;;;24.10;40.10;;;;;;6163004;28;82838;-63
2024/03/28 12:35:32;;;;;;;0.60;0.50;;;24.20;40.30;;;;;;6160997;28;80569;-62
2024/03/28 12:38:32;;;;;;;0.70;0.63;;;24.30;40.20;;;;;;6166748;28;80505;-63
2024/03/28 12:41:33;;;;;;;2.67;0.50;;;24.40;40.20;;;;;;6151945;28;80980;-63
2024/03/28 12:44:33;;;;;;;3.92;0.80;;;24.40;40.20;;;;;;6158202;28;82624;-62
2024/03/28 12:47:34;;;;;;;4.40;0.75;;;24.50;40.20;;;;;;6153753;28;80431;-60
2024/03/28 12:50:34;;;;;;;2.55;0.45;;;24.50;40.50;;;;;;6159146;28;80486;-60
2024/03/28 12:53:36;;;;;;;2.10;0.90;;;24.60;40.70;;;;;;6161902;28;81129;-61
2024/03/28 12:56:37;;;;;;;1.90;0.52;;;24.60;40.70;;;;;;6161788;28;80417;-64
2024/03/28 12:59:37;;;;;;;2.67;0.70;;;24.50;39.70;;;;;;6163889;28;81965;-54
2024/03/28 13:02:38;;;;;;;6.43;0.57;;;24.00;40.00;;;;;;6161227;28;81017;-57
2024/03/28 13:05:38;;;;;;;3.53;0.55;;;23.70;40.30;;;;;;6154762;28;80412;-55
2024/03/28 13:08:39;;;;;;;1.63;0.70;;;23.90;40.70;;;;;;6160118;28;83595;-56
2024/03/28 13:11:39;;;;;;;0.75;0.50;;;24.10;40.50;;;;;;6150366;28;80803;-57
2024/03/28 13:14:40;;;;;;;1.13;0.68;;;24.20;40.50;;;;;;6163981;28;80286;-55
2024/03/28 13:17:41;;;;;;;0.82;0.38;;;24.30;40.50;;;;;;6149622;28;81162;-55
2024/03/28 13:20:41;;;;;;;1.25;0.40;;;24.40;40.50;;;;;;6150339;28;80575;-54
2024/03/28 13:23:42;;;;;;;2.42;0.60;;;24.50;40.50;;;;;;6159430;28;80744;-54
2024/03/28 13:26:43;;;;;;;0.82;0.70;;;24.40;40.50;;;;;;6161459;28;80529;-55
2024/03/28 13:29:44;;;;;;;8.20;0.88;;;24.50;40.60;;;;;;6145244;28;82882;-56
2024/03/28 13:32:44;;;;;;;5.18;0.93;;;24.50;40.70;;;;;;6159553;28;80652;-54
2024/03/28 13:35:45;;;;;;;6.75;1.17;;;24.60;41.00;;;;;;6146432;28;81759;-61
2024/03/28 13:38:45;;;;;;;13.52;1.55;;;24.50;41.60;;;;;;6156602;28;80613;-60
2024/03/28 13:41:46;;;;;;;2.40;1.10;;;24.50;41.50;;;;;;6169056;28;81401;-61
2024/03/28 13:44:46;;;;;;;2.47;0.70;;;24.60;41.40;;;;;;6160269;28;83149;-60
2024/03/28 13:47:47;;;;;;;5.35;0.98;;;24.60;41.30;;;;;;6153502;28;80930;-59
2024/03/28 13:50:47;;;;;;;4.57;0.85;;;24.70;41.40;;;;;;6149244;28;80122;-60
2024/03/28 13:53:48;;;;;;;3.42;0.80;;;24.70;41.40;;;;;;6159167;28;81036;-60
2024/03/28 13:56:48;;;;;;;4.53;0.80;;;24.70;41.70;;;;;;6150108;28;81712;-58
2024/03/28 13:59:49;;;;;;;3.53;0.57;;;24.80;41.80;;;;;;6158255;28;80952;-56
2024/03/28 14:02:49;;;;;;;3.00;0.70;;;24.80;42.00;;;;;;6154023;28;81013;-57
2024/03/28 14:05:50;;;;;;;1.38;0.70;;;24.80;41.90;;;;;;6161154;28;81538;-56
2024/03/28 14:08:50;;;;;;;1.67;0.90;;;24.90;42.30;;;;;;6152853;28;80562;-55
2024/03/28 14:11:51;;;;;;;3.92;0.90;;;24.90;42.20;;;;;;6151986;28;80422;-53
2024/03/28 14:14:51;;;;;;;0.88;0.60;;;24.90;42.30;;;;;;6152234;28;80360;-48
2024/03/28 14:17:52;;;;;;;3.63;0.85;;;24.90;42.70;;;;;;6152250;28;80605;-47
2024/03/28 14:20:53;;;;;;;3.83;1.00;;;24.90;42.30;;;;;;6149371;28;83254;-51
2024/03/28 14:23:53;;;;;;;1.45;0.50;;;24.90;42.50;;;;;;6150331;28;80805;-52
2024/03/28 14:26:54;;;;;;;4.22;0.60;;;24.90;42.70;;;;;;6165634;28;80928;-48
2024/03/28 14:29:55;;;;;;;5.38;1.20;;;24.90;42.90;;;;;;6164198;28;80603;-48
2024/03/28 14:32:55;;;;;;;6.43;0.68;;;24.90;43.10;;;;;;6169935;28;83305;-54
2024/03/28 14:35:56;;;;;;;0.70;0.43;;;24.90;44.00;;;;;;6164622;28;81203;-57
2024/03/28 14:38:56;;;;;;;2.83;0.60;;;24.90;43.50;;;;;;6176347;28;80719;-57
2024/03/28 14:41:57;;;;;;;0.65;0.52;;;24.90;43.10;;;;;;6166987;28;80730;-56
2024/03/28 14:44:57;;;;;;;2.88;1.33;;;24.90;43.30;;;;;;6157107;28;80255;-55
2024/03/28 14:47:58;;;;;;;1.13;0.70;;;25.00;43.20;;;;;;6157916;28;81138;-56
2024/03/28 14:50:59;;;;;;;1.05;0.73;;;25.00;43.30;;;;;;6154420;28;81078;-56
2024/03/28 14:54:00;;;;;;;0.85;0.52;;;24.90;43.30;;;;;;6155295;28;85782;-54
2024/03/28 14:57:00;;;;;;;1.27;0.43;;;25.00;43.40;;;;;;6156419;28;80574;-55
2024/03/28 15:00:01;;;;;;;0.75;0.60;;;24.90;43.10;;;;;;6163621;28;80439;-50
2024/03/28 15:03:02;;;;;;;1.52;0.63;;;24.90;43.30;;;;;;6158564;28;80709;-55
2024/03/28 15:06:02;;;;;;;4.70;0.70;;;24.90;43.30;;;;;;6168180;28;85510;-55
2024/03/28 15:09:03;;;;;;;3.05;0.45;;;25.00;43.30;;;;;;6162797;28;80316;-56
2024/03/28 15:12:04;;;;;;;0.50;0.50;;;24.90;43.30;;;;;;6168165;28;81386;-55
2024/03/28 15:15:04;;;;;;;1.23;0.55;;;25.00;43.20;;;;;;6169138;28;81046;-56
2024/03/28 15:18:07;;;;;;;0.50;0.40;;;24.90;43.00;;;;;;6159674;28;80196;-56
2024/03/28 15:21:08;;;;;;;1.85;0.65;;;24.90;43.10;;;;;;6164062;28;81593;-57
2024/03/28 15:24:10;;;;;;;1.00;0.50;;;24.90;43.00;;;;;;6164475;28;81073;-54
2024/03/28 15:27:10;;;;;;;1.00;0.60;;;24.90;42.90;;;;;;6165325;28;80304;-57
2024/03/28 15:30:11;;;;;;;0.82;0.50;;;24.90;43.00;;;;;;6166677;28;80816;-58
2024/03/28 15:33:11;;;;;;;0.30;0.30;;;24.90;42.90;;;;;;6172237;28;80368;-56
2024/03/28 15:36:12;;;;;;;1.08;0.55;;;24.90;43.00;;;;;;6153815;28;80508;-57
2024/03/28 15:39:13;;;;;;;0.82;0.50;;;24.90;43.00;;;;;;6159537;28;80922;-57
2024/03/28 15:42:13;;;;;;;1.10;0.50;;;24.90;43.00;;;;;;6167148;28;81449;-57